Time;durP1;ratioP1;P1;durP2;ratioP2;P2;SDS_P1;SDS_P2;PMS_P1;PMS_P2;Temp;Humidity;BMP_temperature;BMP_pressure;BME280_temperature;BME280_humidity;BME280_pressure;Samples;Min_cycle;Max_cycle;Signal;HPM_P1;HPM_P2
2023/05/29 00:00:06;;;;;;;7.55;4.28;;;15.40;27.40;;;;;;5013595;28;20801;-70
2023/05/29 00:02:33;;;;;;;5.10;4.03;;;15.30;27.50;;;;;;5013786;28;20389;-70
2023/05/29 00:04:58;;;;;;;7.40;4.40;;;15.30;27.60;;;;;;5013827;28;20545;-71
2023/05/29 00:07:24;;;;;;;8.17;4.30;;;15.20;28.20;;;;;;5013963;28;20467;-70
2023/05/29 00:09:49;;;;;;;8.07;3.97;;;15.20;28.40;;;;;;5013816;28;20961;-71
2023/05/29 00:12:15;;;;;;;7.15;4.05;;;15.20;28.40;;;;;;5013786;28;20384;-71
2023/05/29 00:14:40;;;;;;;7.63;3.90;;;15.10;28.50;;;;;;5013611;28;20865;-69
2023/05/29 00:17:06;;;;;;;8.00;3.90;;;15.00;28.80;;;;;;5013634;28;20397;-72
2023/05/29 00:19:32;;;;;;;9.87;4.20;;;15.00;29.20;;;;;;5013502;28;20460;-72
2023/05/29 00:21:57;;;;;;;10.18;4.40;;;15.00;29.30;;;;;;5013289;28;20385;-71
2023/05/29 00:24:23;;;;;;;7.07;4.30;;;15.00;29.50;;;;;;5010939;28;20408;-73
2023/05/29 00:26:48;;;;;;;7.33;4.00;;;14.90;29.70;;;;;;5013302;28;20404;-71
2023/05/29 00:29:15;;;;;;;6.90;4.00;;;14.90;30.10;;;;;;5013754;28;20387;-71
2023/05/29 00:31:40;;;;;;;8.32;4.10;;;14.80;30.40;;;;;;5011705;28;20389;-70
2023/05/29 00:34:06;;;;;;;8.43;3.93;;;14.80;30.80;;;;;;5013257;28;20481;-70
2023/05/29 00:36:31;;;;;;;5.30;4.00;;;14.80;31.00;;;;;;5013114;28;20392;-70
2023/05/29 00:38:57;;;;;;;7.20;4.00;;;14.70;31.30;;;;;;5013261;28;20817;-70
2023/05/29 00:41:22;;;;;;;8.32;4.65;;;14.70;31.60;;;;;;5013104;28;20392;-71
2023/05/29 00:43:48;;;;;;;6.38;4.00;;;14.70;31.90;;;;;;5013008;28;20385;-71
2023/05/29 00:46:16;;;;;;;10.82;4.35;;;14.60;32.10;;;;;;5012627;28;20811;-69
2023/05/29 00:48:44;;;;;;;7.00;4.13;;;14.60;32.70;;;;;;5013078;28;20388;-71
2023/05/29 00:51:11;;;;;;;5.78;4.32;;;14.60;33.00;;;;;;5012381;28;20392;-71
2023/05/29 00:53:40;;;;;;;7.40;4.60;;;14.60;33.60;;;;;;5012517;28;20385;-71
2023/05/29 00:56:06;;;;;;;8.68;4.40;;;14.50;34.40;;;;;;5011228;28;20404;-70
2023/05/29 00:58:33;;;;;;;7.55;4.10;;;14.50;35.00;;;;;;5012481;28;20471;-70
2023/05/29 01:00:58;;;;;;;7.95;4.40;;;14.40;35.40;;;;;;5012363;28;20475;-71
2023/05/29 01:03:24;;;;;;;8.48;4.05;;;14.40;36.00;;;;;;5013092;28;20420;-70
2023/05/29 01:05:52;;;;;;;9.88;4.15;;;14.40;36.80;;;;;;5012436;28;20474;-71
2023/05/29 01:08:18;;;;;;;7.90;4.30;;;14.20;37.20;;;;;;5012451;28;20418;-71
2023/05/29 01:10:43;;;;;;;12.00;4.60;;;14.20;37.80;;;;;;5012398;28;20475;-71
2023/05/29 01:13:19;;;;;;;10.70;4.65;;;14.10;38.60;;;;;;5012097;28;20416;-71
2023/05/29 01:16:00;;;;;;;12.32;4.65;;;14.10;39.90;;;;;;5012315;28;20385;-70
2023/05/29 01:18:40;;;;;;;7.70;4.20;;;14.00;40.20;;;;;;5012476;28;20389;-70
2023/05/29 01:21:16;;;;;;;11.00;4.38;;;14.00;41.20;;;;;;5012137;28;20385;-70
2023/05/29 01:24:04;;;;;;;7.37;4.70;;;14.00;42.20;;;;;;5012296;28;20468;-71
2023/05/29 01:26:44;;;;;;;8.85;4.78;;;13.90;43.20;;;;;;5012282;28;20392;-70
2023/05/29 01:29:13;;;;;;;10.18;4.00;;;13.90;44.10;;;;;;5010885;28;20388;-70
2023/05/29 01:31:40;;;;;;;12.00;5.07;;;13.80;44.60;;;;;;5010939;28;20380;-70
2023/05/29 01:34:06;;;;;;;13.90;4.80;;;13.70;45.80;;;;;;5011803;28;20476;-70
2023/05/29 01:36:32;;;;;;;13.38;5.30;;;13.70;46.10;;;;;;5012065;28;20918;-71
2023/05/29 01:38:59;;;;;;;11.73;4.83;;;13.70;46.80;;;;;;5011822;28;20392;-71
2023/05/29 01:41:26;;;;;;;12.32;5.20;;;13.60;47.00;;;;;;5011813;28;20384;-70
2023/05/29 01:43:52;;;;;;;11.65;4.80;;;13.60;47.80;;;;;;5011747;28;20395;-70
2023/05/29 01:46:19;;;;;;;12.88;5.20;;;13.60;48.30;;;;;;5011644;28;20467;-70
2023/05/29 01:48:46;;;;;;;11.73;4.78;;;13.50;48.70;;;;;;5011890;28;20471;-70
2023/05/29 01:51:12;;;;;;;9.20;5.20;;;13.40;48.20;;;;;;5011656;28;20543;-70
2023/05/29 01:53:39;;;;;;;14.30;4.93;;;13.40;48.70;;;;;;5011813;28;20866;-71
2023/05/29 01:56:06;;;;;;;12.07;4.75;;;13.40;48.60;;;;;;5012204;28;20384;-71
2023/05/29 01:58:34;;;;;;;13.52;4.75;;;13.30;48.90;;;;;;5010666;28;20393;-70
2023/05/29 02:01:00;;;;;;;11.07;4.65;;;13.30;49.70;;;;;;5011440;28;20424;-71
2023/05/29 02:03:28;;;;;;;14.60;5.50;;;13.20;50.30;;;;;;5011461;28;20389;-70
2023/05/29 02:05:55;;;;;;;15.07;6.30;;;13.10;51.00;;;;;;5011213;28;20415;-71
2023/05/29 02:08:21;;;;;;;10.13;5.00;;;13.10;52.00;;;;;;5011892;28;20391;-70
2023/05/29 02:10:46;;;;;;;12.70;4.87;;;13.20;51.10;;;;;;5011483;28;20377;-71
2023/05/29 02:13:12;;;;;;;13.87;5.40;;;13.10;51.90;;;;;;5011569;28;20384;-70
2023/05/29 02:15:37;;;;;;;10.57;5.00;;;13.10;52.30;;;;;;5011606;28;20415;-70
2023/05/29 02:18:03;;;;;;;13.30;4.75;;;13.10;52.80;;;;;;5011348;28;20392;-71
2023/05/29 02:20:29;;;;;;;16.17;5.00;;;13.00;52.30;;;;;;5011555;28;20380;-70
2023/05/29 02:22:54;;;;;;;16.63;5.60;;;13.00;52.60;;;;;;5011122;28;20592;-69
2023/05/29 02:25:20;;;;;;;9.57;4.80;;;13.00;53.30;;;;;;5011308;28;20404;-69
2023/05/29 02:27:45;;;;;;;10.47;5.10;;;12.90;53.90;;;;;;5009997;28;20396;-71
2023/05/29 02:30:11;;;;;;;12.90;5.57;;;12.90;54.20;;;;;;5011883;28;20766;-71
2023/05/29 02:32:37;;;;;;;16.97;5.30;;;12.80;55.00;;;;;;5011129;28;20385;-70
2023/05/29 02:35:03;;;;;;;14.50;5.10;;;12.80;54.50;;;;;;5010109;28;20381;-71
2023/05/29 02:37:29;;;;;;;12.30;5.00;;;12.70;54.80;;;;;;5011410;28;20415;-71
2023/05/29 02:39:54;;;;;;;15.30;5.20;;;12.70;54.70;;;;;;5011332;28;20392;-70
2023/05/29 02:42:20;;;;;;;14.63;5.13;;;12.60;54.40;;;;;;5011257;28;20389;-71
2023/05/29 02:44:45;;;;;;;16.13;5.78;;;12.60;54.60;;;;;;5011324;28;20496;-71
2023/05/29 02:47:11;;;;;;;16.10;5.25;;;12.50;54.20;;;;;;5014175;28;20388;-70
2023/05/29 02:49:37;;;;;;;16.02;5.00;;;12.50;54.00;;;;;;5016294;28;20498;-70
2023/05/29 02:52:02;;;;;;;17.73;5.20;;;12.40;53.60;;;;;;5015554;28;20912;-72
2023/05/29 02:54:28;;;;;;;14.40;5.13;;;12.30;54.30;;;;;;5014032;28;20416;-70
2023/05/29 02:56:54;;;;;;;18.60;5.10;;;12.30;53.90;;;;;;5014954;28;20388;-71
2023/05/29 02:59:19;;;;;;;14.73;4.80;;;12.30;53.50;;;;;;5015180;28;20392;-69
2023/05/29 03:01:47;;;;;;;15.57;5.05;;;12.30;53.10;;;;;;5014877;28;20388;-70
2023/05/29 03:04:12;;;;;;;13.63;4.70;;;12.20;53.00;;;;;;5014997;28;20481;-70
2023/05/29 03:06:38;;;;;;;13.93;4.60;;;12.20;53.00;;;;;;5015152;28;20842;-71
2023/05/29 03:09:06;;;;;;;15.77;4.57;;;12.20;52.40;;;;;;5014994;28;20801;-70
2023/05/29 03:11:33;;;;;;;19.25;5.20;;;12.20;52.70;;;;;;5015471;28;20461;-69
2023/05/29 03:13:58;;;;;;;18.40;5.10;;;12.10;53.10;;;;;;5014795;28;20489;-71
2023/05/29 03:16:25;;;;;;;19.05;4.80;;;12.10;53.40;;;;;;5014698;28;20412;-73
2023/05/29 03:18:50;;;;;;;22.83;4.82;;;12.10;53.10;;;;;;5014909;28;20830;-72
2023/05/29 03:21:16;;;;;;;21.07;4.97;;;12.10;52.40;;;;;;5015365;28;20443;-71
2023/05/29 03:23:42;;;;;;;17.50;5.30;;;12.10;52.50;;;;;;5016306;28;20385;-71
2023/05/29 03:26:08;;;;;;;20.02;5.57;;;12.00;52.90;;;;;;5031231;28;20464;-72
2023/05/29 03:28:34;;;;;;;14.43;4.10;;;12.00;53.60;;;;;;5045758;22;20443;-73
2023/05/29 03:30:59;;;;;;;19.90;5.18;;;12.10;52.00;;;;;;5034087;28;20468;-73
2023/05/29 03:33:25;;;;;;;18.20;5.28;;;12.10;52.20;;;;;;5032914;28;20474;-73
2023/05/29 03:35:51;;;;;;;21.00;4.45;;;12.00;52.20;;;;;;5033776;28;20383;-72
2023/05/29 03:38:16;;;;;;;19.60;5.32;;;11.90;52.70;;;;;;5033819;28;20462;-72
2023/05/29 03:40:42;;;;;;;16.13;4.80;;;12.00;52.50;;;;;;5033753;28;20463;-73
2023/05/29 03:43:08;;;;;;;22.42;5.20;;;12.00;51.80;;;;;;5033707;28;20521;-72
2023/05/29 03:45:33;;;;;;;22.88;4.82;;;12.00;51.00;;;;;;5033654;28;20922;-72
2023/05/29 03:47:59;;;;;;;18.35;4.97;;;12.00;51.70;;;;;;5033770;28;20391;-72
2023/05/29 03:50:24;;;;;;;20.57;5.07;;;12.00;52.70;;;;;;5033665;28;20384;-72
2023/05/29 03:52:50;;;;;;;17.57;4.37;;;12.00;51.50;;;;;;5033740;28;20383;-73
2023/05/29 03:55:16;;;;;;;21.00;5.30;;;12.00;51.00;;;;;;5033479;28;20425;-73
2023/05/29 03:57:41;;;;;;;14.85;4.50;;;11.90;51.20;;;;;;5033057;28;20401;-73
2023/05/29 04:00:10;;;;;;;16.02;4.53;;;12.00;51.60;;;;;;5033741;28;20758;-72
2023/05/29 04:02:37;;;;;;;20.07;4.83;;;12.00;51.60;;;;;;5033319;28;20383;-73
2023/05/29 04:05:03;;;;;;;19.27;4.80;;;12.00;52.00;;;;;;5033185;28;20803;-72
2023/05/29 04:07:29;;;;;;;19.67;4.30;;;12.00;51.90;;;;;;5033491;28;20747;-72
2023/05/29 04:09:54;;;;;;;21.80;4.97;;;11.90;52.20;;;;;;5033370;28;20383;-72
2023/05/29 04:12:20;;;;;;;19.37;5.70;;;11.90;52.30;;;;;;5033080;28;20860;-72
2023/05/29 04:14:45;;;;;;;20.40;5.27;;;12.00;52.60;;;;;;5033235;28;20379;-73
2023/05/29 04:17:11;;;;;;;22.50;5.57;;;12.00;52.60;;;;;;5033150;28;20456;-73
2023/05/29 04:19:36;;;;;;;27.03;5.63;;;12.00;53.00;;;;;;5032970;28;20437;-72
2023/05/29 04:22:02;;;;;;;21.25;4.90;;;11.90;53.90;;;;;;5033154;28;20410;-73
2023/05/29 04:24:28;;;;;;;22.77;5.32;;;11.90;54.50;;;;;;5035047;28;20501;-73
2023/05/29 04:26:53;;;;;;;22.63;5.00;;;11.90;54.30;;;;;;5035065;28;20748;-73
2023/05/29 04:29:19;;;;;;;16.13;4.40;;;11.90;54.40;;;;;;5034238;28;20445;-72
2023/05/29 04:31:45;;;;;;;17.40;5.00;;;11.90;54.20;;;;;;5032613;28;20744;-73
2023/05/29 04:34:10;;;;;;;15.32;4.70;;;11.90;54.40;;;;;;5032843;28;20859;-72
2023/05/29 04:36:39;;;;;;;22.92;4.32;;;11.90;54.60;;;;;;5032710;28;20391;-72
2023/05/29 04:39:06;;;;;;;20.33;4.72;;;11.90;54.80;;;;;;5031296;28;20402;-72
2023/05/29 04:41:32;;;;;;;25.00;5.17;;;12.00;54.70;;;;;;5031287;28;20865;-72
2023/05/29 04:43:58;;;;;;;26.57;5.37;;;12.00;54.40;;;;;;5032504;28;20479;-73
2023/05/29 04:46:24;;;;;;;18.48;4.80;;;12.00;54.20;;;;;;5032496;28;20383;-72
2023/05/29 04:48:53;;;;;;;21.33;5.00;;;12.00;54.70;;;;;;5032529;28;20383;-73
2023/05/29 04:51:20;;;;;;;27.63;6.27;;;12.00;54.30;;;;;;5032294;28;20423;-73
2023/05/29 04:53:46;;;;;;;20.30;5.63;;;12.00;54.50;;;;;;5032381;28;20422;-73
2023/05/29 04:56:12;;;;;;;23.98;5.78;;;12.10;54.00;;;;;;5040520;28;20383;-72
2023/05/29 04:58:38;;;;;;;23.25;5.13;;;12.20;53.30;;;;;;5047988;28;20391;-74
2023/05/29 05:01:04;;;;;;;26.75;4.70;;;12.20;52.30;;;;;;5044889;28;20379;-73
2023/05/29 05:03:34;;;;;;;23.52;5.22;;;12.20;51.90;;;;;;5032791;28;20422;-73
2023/05/29 05:06:03;;;;;;;22.10;5.20;;;12.20;51.90;;;;;;5032428;28;20439;-73
2023/05/29 05:08:29;;;;;;;25.02;5.40;;;12.20;53.00;;;;;;5032288;28;20725;-73
2023/05/29 05:10:55;;;;;;;19.42;4.85;;;12.20;52.10;;;;;;5032061;28;20469;-73
2023/05/29 05:13:21;;;;;;;20.67;4.60;;;12.30;52.20;;;;;;5031044;28;20426;-73
2023/05/29 05:15:46;;;;;;;18.48;5.43;;;12.30;51.40;;;;;;5030690;28;20755;-73
2023/05/29 05:18:12;;;;;;;20.67;4.73;;;12.40;52.50;;;;;;5032440;28;20477;-72
2023/05/29 05:20:37;;;;;;;24.17;5.30;;;12.40;50.40;;;;;;5031839;28;20387;-72
2023/05/29 05:23:03;;;;;;;16.80;4.93;;;12.50;49.60;;;;;;5031922;28;20732;-74
2023/05/29 05:25:28;;;;;;;21.90;5.37;;;12.60;48.40;;;;;;5031733;28;20968;-74
2023/05/29 05:27:54;;;;;;;19.98;4.30;;;12.60;48.90;;;;;;5029611;28;20461;-73
2023/05/29 05:30:20;;;;;;;17.23;4.60;;;12.70;47.50;;;;;;5031094;28;20403;-73
2023/05/29 05:32:45;;;;;;;21.77;4.75;;;12.70;47.10;;;;;;5030632;28;20388;-73
2023/05/29 05:35:11;;;;;;;20.40;4.90;;;12.80;45.80;;;;;;5029446;28;20815;-74
2023/05/29 05:37:37;;;;;;;23.08;5.07;;;12.80;45.30;;;;;;5030902;28;20387;-74
2023/05/29 05:40:06;;;;;;;20.63;5.53;;;12.80;45.40;;;;;;5031935;28;20394;-73
2023/05/29 05:42:32;;;;;;;19.10;4.95;;;12.80;46.20;;;;;;5034144;28;20399;-72
2023/05/29 05:44:57;;;;;;;20.20;5.30;;;12.90;45.60;;;;;;5034432;28;20873;-74
2023/05/29 05:47:23;;;;;;;20.80;4.80;;;13.00;44.20;;;;;;5031365;28;20437;-74
2023/05/29 05:49:51;;;;;;;22.23;5.27;;;13.10;43.70;;;;;;5033409;28;20383;-72
2023/05/29 05:52:17;;;;;;;21.20;5.17;;;13.10;42.80;;;;;;5030379;28;20398;-73
2023/05/29 05:54:43;;;;;;;23.80;4.88;;;13.20;43.50;;;;;;5030419;28;20418;-72
2023/05/29 05:57:09;;;;;;;20.80;4.72;;;13.30;42.40;;;;;;5028946;28;20383;-72
2023/05/29 05:59:34;;;;;;;16.77;4.20;;;13.40;41.20;;;;;;5029028;28;20466;-72
2023/05/29 06:02:00;;;;;;;16.40;4.20;;;13.30;40.60;;;;;;5030132;28;20449;-72
2023/05/29 06:04:26;;;;;;;16.40;5.03;;;13.20;42.00;;;;;;5030158;28;20653;-72
2023/05/29 06:06:51;;;;;;;17.93;4.60;;;13.30;41.20;;;;;;5030038;28;20402;-73
2023/05/29 06:09:17;;;;;;;15.57;5.07;;;13.40;41.50;;;;;;5030140;28;20387;-72
2023/05/29 06:11:43;;;;;;;21.48;5.25;;;13.50;41.00;;;;;;5029837;28;20470;-72
2023/05/29 06:14:08;;;;;;;21.65;5.18;;;13.60;39.10;;;;;;5028912;28;20391;-72
2023/05/29 06:16:34;;;;;;;21.40;4.93;;;13.70;38.60;;;;;;5029981;28;20432;-73
2023/05/29 06:19:00;;;;;;;15.95;4.70;;;13.70;38.50;;;;;;5030058;28;20437;-72
2023/05/29 06:21:26;;;;;;;21.88;5.97;;;13.80;38.90;;;;;;5029774;28;20394;-72
2023/05/29 06:23:52;;;;;;;24.05;5.13;;;14.10;37.30;;;;;;5029966;28;20391;-72
2023/05/29 06:26:17;;;;;;;22.20;5.70;;;14.20;36.30;;;;;;5029923;28;20403;-72
2023/05/29 06:28:43;;;;;;;21.40;5.37;;;14.10;36.00;;;;;;4968747;28;1755264;-72
2023/05/29 06:31:09;;;;;;;19.73;6.43;;;14.20;36.10;;;;;;5030651;28;20795;-73
2023/05/29 06:33:37;;;;;;;18.57;5.00;;;14.30;35.90;;;;;;5030783;28;20408;-73
2023/05/29 06:36:03;;;;;;;17.77;4.50;;;14.50;35.00;;;;;;5030525;28;20474;-72
2023/05/29 06:38:28;;;;;;;16.27;4.60;;;14.40;34.70;;;;;;5030728;28;20466;-73
2023/05/29 06:40:54;;;;;;;18.25;4.70;;;14.20;35.80;;;;;;5030817;28;20391;-72
2023/05/29 06:43:19;;;;;;;15.50;4.80;;;14.30;35.80;;;;;;5029755;28;20402;-72
2023/05/29 06:45:45;;;;;;;16.93;4.03;;;14.40;34.90;;;;;;5030743;28;20421;-72
2023/05/29 06:48:10;;;;;;;18.80;5.13;;;14.30;34.80;;;;;;5030717;28;20394;-73
2023/05/29 06:50:36;;;;;;;20.50;4.97;;;14.10;35.90;;;;;;5030858;28;20408;-72
2023/05/29 06:53:01;;;;;;;20.63;5.53;;;14.20;35.30;;;;;;5031699;28;20383;-72
2023/05/29 06:55:27;;;;;;;18.77;4.23;;;14.30;35.30;;;;;;5032782;28;20482;-73
2023/05/29 06:57:53;;;;;;;18.17;5.30;;;14.30;34.80;;;;;;5033796;28;20406;-72
2023/05/29 07:00:18;;;;;;;20.27;5.23;;;14.40;35.90;;;;;;5033096;28;20413;-72
2023/05/29 07:02:44;;;;;;;20.23;4.90;;;14.60;34.00;;;;;;5029254;28;20407;-73
2023/05/29 07:05:10;;;;;;;22.27;5.27;;;14.70;33.10;;;;;;5029944;28;20411;-72
2023/05/29 07:07:35;;;;;;;13.80;5.30;;;14.80;33.10;;;;;;5039035;28;20419;-72
2023/05/29 07:10:01;;;;;;;16.85;4.93;;;14.90;32.90;;;;;;5030006;28;20395;-72
2023/05/29 07:12:26;;;;;;;17.20;4.90;;;15.10;32.80;;;;;;5029669;28;20399;-73
2023/05/29 07:14:52;;;;;;;16.10;4.93;;;15.10;31.00;;;;;;5030604;28;20394;-71
2023/05/29 07:17:18;;;;;;;18.00;5.10;;;14.90;32.50;;;;;;5030265;28;20444;-72
2023/05/29 07:19:43;;;;;;;18.43;5.00;;;14.80;33.30;;;;;;5029514;28;20454;-72
2023/05/29 07:22:09;;;;;;;14.80;4.70;;;14.80;33.50;;;;;;5029455;28;20402;-73
2023/05/29 07:24:34;;;;;;;21.52;5.80;;;15.00;32.70;;;;;;5030046;28;20907;-72
2023/05/29 07:27:00;;;;;;;15.75;4.72;;;15.30;32.20;;;;;;5030018;28;20945;-72
2023/05/29 07:29:25;;;;;;;17.38;5.57;;;15.10;31.40;;;;;;5028966;28;20379;-72
2023/05/29 07:31:51;;;;;;;16.87;4.70;;;15.00;31.90;;;;;;5029067;28;20493;-72
2023/05/29 07:34:17;;;;;;;16.50;4.50;;;15.00;31.80;;;;;;5031077;28;20914;-73
2023/05/29 07:36:59;;;;;;;19.50;5.03;;;15.00;31.90;;;;;;5018471;28;20400;-73
2023/05/29 07:39:25;;;;;;;21.13;5.68;;;15.20;32.40;;;;;;5031698;28;20399;-72
2023/05/29 07:41:51;;;;;;;20.23;5.10;;;15.30;31.80;;;;;;5031066;28;20400;-73
2023/05/29 07:44:16;;;;;;;18.97;4.60;;;15.40;31.40;;;;;;5031701;28;20387;-73
2023/05/29 07:46:42;;;;;;;17.30;5.40;;;15.50;31.30;;;;;;5031299;28;20406;-73
2023/05/29 07:49:07;;;;;;;19.55;5.30;;;15.60;31.40;;;;;;5031600;28;20395;-74
2023/05/29 07:51:33;;;;;;;21.10;4.70;;;15.80;30.90;;;;;;5029165;28;20402;-74
2023/05/29 07:53:59;;;;;;;17.97;5.17;;;16.00;28.40;;;;;;5031187;28;20973;-75
2023/05/29 07:56:25;;;;;;;19.43;4.90;;;15.70;29.30;;;;;;5032115;28;20466;-75
2023/05/29 07:58:53;;;;;;;21.00;5.20;;;15.50;30.70;;;;;;5030613;28;20710;-74
2023/05/29 08:01:19;;;;;;;19.25;5.03;;;15.70;30.70;;;;;;5030221;28;20938;-75
2023/05/29 08:03:44;;;;;;;21.52;5.05;;;15.90;29.30;;;;;;5031740;28;20391;-74
2023/05/29 08:06:11;;;;;;;22.67;4.90;;;16.10;29.20;;;;;;5030724;28;20418;-73
2023/05/29 08:08:36;;;;;;;18.37;4.97;;;16.20;29.20;;;;;;5031618;28;20412;-72
2023/05/29 08:11:02;;;;;;;21.70;5.90;;;16.30;27.40;;;;;;5032101;28;20509;-74
2023/05/29 08:13:30;;;;;;;17.77;5.20;;;16.30;28.00;;;;;;5031300;28;20395;-74
2023/05/29 08:15:55;;;;;;;17.95;5.00;;;16.60;28.40;;;;;;5031094;28;20453;-73
2023/05/29 08:18:21;;;;;;;18.02;5.10;;;16.90;26.90;;;;;;5030739;28;20406;-74
2023/05/29 08:20:47;;;;;;;17.98;5.70;;;17.00;25.90;;;;;;5031208;28;20395;-76
2023/05/29 08:23:13;;;;;;;13.35;4.40;;;17.20;26.40;;;;;;5030762;28;20399;-74
2023/05/29 08:25:38;;;;;;;18.23;4.95;;;17.00;24.30;;;;;;5031462;28;20446;-74
2023/05/29 08:28:04;;;;;;;13.10;4.40;;;16.90;25.20;;;;;;5030686;28;20414;-75
2023/05/29 08:30:29;;;;;;;18.10;4.80;;;16.60;25.90;;;;;;5031051;28;20893;-74
2023/05/29 08:32:55;;;;;;;14.98;4.70;;;16.60;26.80;;;;;;5031577;28;20883;-74
2023/05/29 08:35:20;;;;;;;18.27;4.90;;;16.80;26.30;;;;;;5031525;28;20387;-74
2023/05/29 08:37:46;;;;;;;18.43;5.20;;;17.00;26.40;;;;;;5032564;28;20808;-71
2023/05/29 08:40:12;;;;;;;20.33;5.00;;;17.30;26.50;;;;;;5032636;28;20451;-75
2023/05/29 08:42:46;;;;;;;18.08;5.25;;;17.60;24.70;;;;;;5031499;28;20422;-73
2023/05/29 08:45:13;;;;;;;16.02;4.60;;;17.40;24.30;;;;;;5030301;28;20419;-73
2023/05/29 08:47:40;;;;;;;18.13;4.60;;;17.20;24.00;;;;;;5032385;28;20383;-73
2023/05/29 08:50:07;;;;;;;13.27;4.50;;;17.20;23.80;;;;;;5033223;28;20744;-74
2023/05/29 08:52:37;;;;;;;20.55;5.30;;;17.10;24.70;;;;;;5032399;28;20906;-72
2023/05/29 08:55:04;;;;;;;19.42;5.57;;;17.20;25.70;;;;;;5040109;28;20407;-74
2023/05/29 08:57:30;;;;;;;16.98;4.43;;;17.40;24.60;;;;;;5045982;28;20475;-75
2023/05/29 08:59:56;;;;;;;14.67;4.50;;;17.70;23.30;;;;;;5040704;28;20399;-75
2023/05/29 09:02:22;;;;;;;15.13;4.50;;;17.80;22.70;;;;;;5037677;28;20418;-73
2023/05/29 09:04:48;;;;;;;16.77;5.15;;;18.00;22.20;;;;;;5033316;28;20423;-74
2023/05/29 09:07:16;;;;;;;21.67;5.32;;;18.30;22.00;;;;;;5032919;28;20883;-72
2023/05/29 09:09:42;;;;;;;23.30;5.32;;;18.40;21.40;;;;;;5033355;28;20437;-76
2023/05/29 09:12:09;;;;;;;17.17;4.80;;;18.50;21.30;;;;;;5032807;28;20914;-73
2023/05/29 09:14:36;;;;;;;16.20;5.22;;;18.40;20.90;;;;;;5031331;28;20403;-73
2023/05/29 09:17:03;;;;;;;18.73;4.55;;;18.30;21.60;;;;;;5032840;28;20399;-73
2023/05/29 09:19:29;;;;;;;17.50;4.50;;;18.30;21.20;;;;;;5032358;28;20391;-72
2023/05/29 09:22:05;;;;;;;18.00;5.07;;;17.70;21.90;;;;;;5036636;28;20380;-74
2023/05/29 09:24:36;;;;;;;16.98;5.13;;;17.70;22.90;;;;;;5042036;28;20407;-73
2023/05/29 09:29:32;;;;;;;18.52;5.20;;;17.80;22.90;;;;;;5032202;28;20460;-73
2023/05/29 09:31:58;;;;;;;13.73;3.83;;;17.80;22.90;;;;;;5033474;28;20379;-73
2023/05/29 09:34:28;;;;;;;15.93;5.60;;;17.70;22.30;;;;;;5033768;28;20941;-73
2023/05/29 09:37:02;;;;;;;18.40;5.32;;;17.80;23.10;;;;;;5032111;28;20906;-75
2023/05/29 09:39:28;;;;;;;17.65;4.68;;;17.90;23.60;;;;;;5034132;28;20379;-73
2023/05/29 09:41:53;;;;;;;15.00;4.67;;;18.00;21.60;;;;;;5036861;28;20379;-74
2023/05/29 09:44:19;;;;;;;15.30;4.60;;;18.10;22.30;;;;;;5037434;28;20379;-73
2023/05/29 09:46:48;;;;;;;11.90;4.30;;;18.10;21.60;;;;;;5038164;28;20470;-73
2023/05/29 09:49:14;;;;;;;20.05;4.55;;;18.10;21.80;;;;;;5037835;28;20391;-73
2023/05/29 09:51:41;;;;;;;17.33;4.57;;;18.20;21.60;;;;;;5037529;28;20430;-73
2023/05/29 09:54:14;;;;;;;11.05;4.70;;;18.30;21.40;;;;;;5035771;28;20398;-72
2023/05/29 09:56:42;;;;;;;16.90;4.70;;;18.30;21.50;;;;;;5032833;28;20486;-73
2023/05/29 09:59:11;;;;;;;17.17;4.78;;;18.30;21.80;;;;;;5032740;28;20422;-72
2023/05/29 10:01:41;;;;;;;15.70;5.03;;;18.60;21.30;;;;;;5032845;28;20867;-74
2023/05/29 10:04:07;;;;;;;17.45;5.20;;;18.80;20.00;;;;;;5032628;28;20387;-73
2023/05/29 10:06:36;;;;;;;13.33;4.30;;;18.70;20.00;;;;;;5030501;28;20411;-72
2023/05/29 10:09:03;;;;;;;19.60;5.20;;;18.40;20.00;;;;;;5031778;28;20392;-73
2023/05/29 10:11:29;;;;;;;18.23;4.68;;;18.30;21.40;;;;;;5031837;28;20473;-73
2023/05/29 10:13:57;;;;;;;14.63;4.88;;;18.40;20.80;;;;;;5030617;28;20391;-75
2023/05/29 10:16:24;;;;;;;18.08;4.95;;;18.60;20.10;;;;;;5032054;28;20395;-73
2023/05/29 10:18:57;;;;;;;15.85;4.50;;;18.50;20.60;;;;;;5032356;28;20393;-75
2023/05/29 10:21:26;;;;;;;18.55;4.65;;;18.80;19.80;;;;;;5031389;28;20391;-72
2023/05/29 10:23:54;;;;;;;19.73;5.10;;;18.90;19.00;;;;;;5031671;28;20379;-74
2023/05/29 10:26:26;;;;;;;14.27;4.50;;;18.70;19.50;;;;;;5031787;28;20430;-71
2023/05/29 10:29:17;;;;;;;17.23;5.35;;;18.60;20.10;;;;;;5030076;28;20745;-74
2023/05/29 10:32:06;;;;;;;18.92;5.18;;;19.00;19.20;;;;;;5031303;28;20471;-73
2023/05/29 10:34:57;;;;;;;10.57;4.10;;;19.00;19.20;;;;;;5031395;28;20797;-72
2023/05/29 10:37:52;;;;;;;17.77;4.70;;;18.90;18.80;;;;;;5030406;28;20774;-73
2023/05/29 10:40:24;;;;;;;18.23;4.60;;;19.10;19.00;;;;;;5032181;28;20383;-72
2023/05/29 10:42:54;;;;;;;18.80;4.90;;;19.00;18.40;;;;;;5032717;28;20415;-73
2023/05/29 10:45:31;;;;;;;13.90;4.45;;;19.30;19.10;;;;;;5031005;28;20407;-73
2023/05/29 10:48:17;;;;;;;19.13;4.80;;;19.40;17.80;;;;;;5029715;28;20457;-74
2023/05/29 10:50:45;;;;;;;17.45;4.70;;;19.30;18.00;;;;;;5030871;28;20388;-74
2023/05/29 10:53:16;;;;;;;14.13;4.20;;;19.20;18.70;;;;;;5031354;28;20387;-73
2023/05/29 10:55:44;;;;;;;14.47;4.50;;;19.50;18.40;;;;;;5031079;28;20387;-74
2023/05/29 10:58:14;;;;;;;18.90;4.90;;;19.60;17.70;;;;;;5030930;28;20384;-74
2023/05/29 11:00:45;;;;;;;12.60;4.45;;;19.80;18.00;;;;;;5030694;28;20486;-74
2023/05/29 11:03:15;;;;;;;13.35;4.50;;;19.80;17.80;;;;;;5030735;28;20398;-72
2023/05/29 11:05:56;;;;;;;14.55;4.72;;;19.40;17.40;;;;;;5031165;28;20825;-75
2023/05/29 11:08:41;;;;;;;13.90;4.30;;;19.40;17.20;;;;;;5034626;28;20441;-73
2023/05/29 11:11:10;;;;;;;20.23;5.10;;;19.30;17.70;;;;;;5035248;28;20391;-75
2023/05/29 11:13:37;;;;;;;17.10;4.43;;;19.30;18.00;;;;;;5034934;28;20818;-74
2023/05/29 11:16:18;;;;;;;15.68;4.13;;;19.50;17.40;;;;;;5035341;28;20828;-75
2023/05/29 11:18:46;;;;;;;16.92;5.05;;;19.70;17.70;;;;;;5034933;28;20390;-73
2023/05/29 11:21:51;;;;;;;11.80;3.83;;;20.10;17.30;;;;;;5034874;28;20391;-73
2023/05/29 11:24:37;;;;;;;15.32;4.18;;;20.30;15.90;;;;;;5034372;28;20403;-74
2023/05/29 11:27:06;;;;;;;15.20;4.68;;;20.30;16.10;;;;;;5034655;28;20379;-74
2023/05/29 11:29:32;;;;;;;11.90;4.40;;;20.40;16.60;;;;;;5033579;28;20398;-74
2023/05/29 11:32:05;;;;;;;12.50;4.28;;;20.10;16.10;;;;;;5034386;28;20393;-73
2023/05/29 11:34:32;;;;;;;14.05;4.40;;;20.00;16.60;;;;;;5032991;28;20395;-74
2023/05/29 11:37:02;;;;;;;14.00;4.18;;;20.20;15.40;;;;;;5034381;28;20414;-74
2023/05/29 11:39:28;;;;;;;13.40;4.20;;;20.20;16.00;;;;;;5034593;28;20716;-72
2023/05/29 11:41:55;;;;;;;11.03;4.23;;;20.40;15.90;;;;;;5033819;28;20560;-74
2023/05/29 11:44:23;;;;;;;15.20;4.63;;;20.60;16.10;;;;;;5034361;28;20410;-72
2023/05/29 11:47:03;;;;;;;13.13;4.53;;;20.90;15.20;;;;;;5033829;28;20423;-73
2023/05/29 11:49:30;;;;;;;15.77;5.15;;;21.20;15.30;;;;;;5032566;28;20383;-73
2023/05/29 11:52:14;;;;;;;18.13;4.55;;;21.40;13.40;;;;;;5033864;28;20383;-74
2023/05/29 11:54:46;;;;;;;13.38;4.35;;;21.20;14.10;;;;;;5032895;28;20387;-74
2023/05/29 11:57:20;;;;;;;15.68;4.57;;;21.40;13.30;;;;;;5034300;28;20399;-73
2023/05/29 11:59:46;;;;;;;14.90;4.70;;;21.10;14.10;;;;;;5035367;28;20387;-73
2023/05/29 12:02:12;;;;;;;17.58;4.50;;;21.10;14.90;;;;;;5034632;28;20387;-74
2023/05/29 12:04:38;;;;;;;16.23;4.28;;;21.40;13.40;;;;;;5033579;28;20407;-72
2023/05/29 12:07:17;;;;;;;15.15;4.60;;;21.60;13.00;;;;;;5035162;28;20387;-74
2023/05/29 12:09:43;;;;;;;14.27;4.53;;;21.50;14.30;;;;;;5035337;28;20390;-75
2023/05/29 12:12:09;;;;;;;13.37;3.70;;;21.60;13.40;;;;;;5034931;28;20396;-74
2023/05/29 12:14:34;;;;;;;15.70;4.50;;;21.50;12.80;;;;;;5035243;28;20898;-73
2023/05/29 12:17:00;;;;;;;12.30;4.50;;;21.10;14.10;;;;;;5034751;28;20466;-75
2023/05/29 12:19:26;;;;;;;14.73;4.57;;;21.30;14.50;;;;;;5034735;28;20425;-73
2023/05/29 12:21:51;;;;;;;15.82;4.85;;;21.70;13.80;;;;;;5034031;28;20387;-72
2023/05/29 12:24:20;;;;;;;15.15;4.47;;;21.90;13.00;;;;;;5034489;28;20474;-73
2023/05/29 12:26:48;;;;;;;13.27;4.40;;;22.10;12.50;;;;;;5034462;28;20863;-74
2023/05/29 12:29:15;;;;;;;17.65;4.50;;;21.80;12.70;;;;;;5035162;28;20422;-73
2023/05/29 12:31:41;;;;;;;18.42;4.70;;;21.70;12.60;;;;;;5033767;28;20383;-74
2023/05/29 12:34:12;;;;;;;14.85;3.90;;;21.60;13.30;;;;;;5033620;28;20379;-75
2023/05/29 12:36:41;;;;;;;11.88;3.95;;;21.30;13.40;;;;;;5033814;28;20478;-73
2023/05/29 12:39:10;;;;;;;14.38;4.40;;;20.80;13.20;;;;;;5034235;28;20756;-76
2023/05/29 12:41:37;;;;;;;12.07;4.32;;;21.00;13.70;;;;;;5033695;28;20391;-72